createdAt,value
2023-04-13T00:00:34.109Z,3.15
2023-04-13T00:16:13.517Z,3.35
2023-04-13T00:18:41.812Z,3.72
2023-04-13T00:21:09.948Z,3.50
2023-04-13T00:23:38.250Z,3.65
2023-04-13T00:26:06.897Z,3.35
2023-04-13T00:28:35.078Z,3.90
2023-04-13T00:31:03.266Z,3.25
2023-04-13T00:33:35.772Z,3.65
2023-04-13T00:36:04.146Z,3.47
2023-04-13T00:38:32.173Z,4.13
2023-04-13T00:41:02.528Z,2.85
2023-04-13T00:43:32.629Z,3.60
2023-04-13T00:46:02.026Z,3.38
2023-04-13T00:48:30.272Z,3.28
2023-04-13T00:51:00.221Z,3.22
2023-04-13T00:53:29.644Z,3.97
2023-04-13T00:55:58.096Z,3.97
2023-04-13T00:58:26.501Z,3.35
2023-04-13T01:00:54.614Z,3.40
2023-04-13T01:03:22.801Z,3.60
2023-04-13T01:05:57.660Z,3.42
2023-04-13T01:08:33.030Z,4.28
2023-04-13T01:11:05.959Z,3.50
2023-04-13T01:13:41.621Z,3.85
2023-04-13T01:16:18.351Z,3.97
2023-04-13T01:18:53.458Z,4.82
2023-04-13T01:21:26.098Z,2.70
2023-04-13T01:24:06.726Z,3.70
2023-04-13T01:26:45.961Z,4.10
2023-04-13T01:29:16.008Z,4.05
2023-04-13T01:31:44.787Z,4.20
2023-04-13T01:34:13.349Z,3.80
2023-04-13T01:36:41.745Z,3.88
2023-04-13T01:39:11.343Z,3.63
2023-04-13T01:41:40.422Z,4.50
2023-04-13T01:44:09.056Z,3.40
2023-04-13T01:46:46.496Z,4.20
2023-04-13T01:49:33.941Z,4.70
2023-04-13T01:52:14.851Z,3.50
2023-04-13T01:54:46.815Z,4.90
2023-04-13T01:57:17.467Z,4.30
2023-04-13T01:59:47.673Z,3.97
2023-04-13T02:02:21.208Z,3.85
2023-04-13T02:04:49.516Z,3.70
2023-04-13T02:07:18.956Z,3.80
2023-04-13T02:09:50.336Z,3.80
2023-04-13T02:12:18.717Z,4.90
2023-04-13T02:14:47.286Z,3.95
2023-04-13T02:17:15.775Z,3.22
2023-04-13T02:19:46.314Z,4.10
2023-04-13T02:22:16.438Z,3.80
2023-04-13T02:24:44.743Z,4.50
2023-04-13T02:27:13.442Z,3.78
2023-04-13T02:29:41.736Z,4.07
2023-04-13T02:32:10.492Z,3.63
2023-04-13T02:34:39.016Z,3.60
2023-04-13T02:37:09.497Z,3.72
2023-04-13T02:39:38.301Z,3.97
2023-04-13T02:42:08.138Z,3.85
2023-04-13T02:44:36.575Z,3.72
2023-04-13T02:47:04.712Z,4.25
2023-04-13T02:49:33.032Z,4.03
2023-04-13T02:52:14.528Z,4.20
2023-04-13T02:54:54.429Z,4.40
2023-04-13T02:57:26.556Z,4.20
2023-04-13T02:59:56.988Z,3.70
2023-04-13T03:02:30.211Z,3.90
2023-04-13T03:04:59.720Z,4.47
2023-04-13T03:07:32.471Z,4.22
2023-04-13T03:10:02.458Z,4.63
2023-04-13T03:12:31.442Z,5.00
2023-04-13T03:15:02.375Z,3.80
2023-04-13T03:17:32.079Z,4.63
2023-04-13T03:20:01.185Z,4.15
2023-04-13T03:22:31.369Z,4.50
2023-04-13T03:25:03.992Z,4.28
2023-04-13T03:27:37.821Z,4.13
2023-04-13T03:30:08.331Z,5.45
2023-04-13T03:32:46.923Z,3.97
2023-04-13T03:35:15.646Z,4.35
2023-04-13T03:37:45.395Z,4.07
2023-04-13T03:40:27.998Z,4.55
2023-04-13T03:42:57.194Z,4.18
2023-04-13T03:45:28.871Z,4.65
2023-04-13T03:48:00.644Z,4.65
2023-04-13T03:50:29.788Z,5.05
2023-04-13T03:52:59.786Z,4.68
2023-04-13T03:55:28.407Z,4.70
2023-04-13T03:57:59.554Z,5.03
2023-04-13T04:00:30.412Z,4.18
2023-04-13T04:03:12.871Z,4.90
2023-04-13T04:05:56.235Z,4.72
2023-04-13T04:08:27.966Z,5.40
2023-04-13T04:11:00.380Z,5.82
2023-04-13T04:13:30.783Z,5.60
2023-04-13T04:16:03.743Z,5.78
2023-04-13T04:18:35.002Z,5.25
2023-04-13T04:21:04.356Z,4.80
2023-04-13T04:23:38.034Z,4.60
2023-04-13T04:26:08.488Z,5.00
2023-04-13T04:28:46.030Z,5.47
2023-04-13T04:31:19.707Z,5.55
2023-04-13T04:33:52.199Z,4.97
2023-04-13T04:36:22.273Z,5.10
2023-04-13T04:39:02.742Z,6.20
2023-04-13T04:41:37.889Z,6.30
2023-04-13T04:44:09.185Z,5.45
2023-04-13T04:46:41.694Z,3.90
2023-04-13T04:49:14.080Z,3.10
2023-04-13T04:51:42.663Z,2.75
2023-04-13T04:54:16.911Z,3.03
2023-04-13T04:56:48.473Z,2.78
2023-04-13T04:59:19.679Z,2.90
2023-04-13T05:02:00.378Z,2.03
2023-04-13T05:04:29.094Z,2.85
2023-04-13T05:06:57.641Z,2.60
2023-04-13T05:09:28.331Z,2.53
2023-04-13T05:11:58.205Z,2.90
2023-04-13T05:14:26.412Z,2.90
2023-04-13T05:16:55.713Z,2.40
2023-04-13T05:19:31.683Z,2.35
2023-04-13T05:22:10.179Z,3.67
2023-04-13T05:24:49.174Z,3.85
2023-04-13T05:27:18.507Z,3.83
2023-04-13T05:29:47.928Z,3.05
2023-04-13T05:32:21.249Z,3.47
2023-04-13T05:34:51.570Z,3.70
2023-04-13T05:37:23.753Z,3.05
2023-04-13T05:39:54.243Z,3.78
2023-04-13T05:42:29.259Z,4.10
2023-04-13T05:44:57.971Z,4.07
2023-04-13T05:47:27.808Z,3.30
2023-04-13T05:50:00.695Z,3.00
2023-04-13T05:52:29.513Z,3.40
2023-04-13T05:55:52.641Z,2.47
2023-04-13T05:58:48.653Z,2.10
2023-04-13T06:01:24.661Z,2.25
2023-04-13T06:03:55.241Z,2.65
2023-04-13T06:06:25.045Z,2.10
2023-04-13T06:08:54.385Z,3.28
2023-04-13T06:11:25.159Z,2.72
2023-04-13T06:13:55.118Z,2.00
2023-04-13T06:16:23.407Z,1.90
2023-04-13T06:18:52.156Z,1.85
2023-04-13T06:21:20.506Z,1.40
2023-04-13T06:23:50.640Z,2.80
2023-04-13T06:26:29.681Z,1.85
2023-04-13T06:29:00.027Z,1.40
2023-04-13T06:31:28.793Z,1.95
2023-04-13T06:34:01.252Z,1.63
2023-04-13T06:36:34.581Z,1.50
2023-04-13T06:39:04.497Z,2.15
2023-04-13T06:41:34.796Z,2.20
2023-04-13T06:44:23.040Z,1.98
2023-04-13T06:46:57.004Z,2.30
2023-04-13T06:49:26.905Z,2.00
2023-04-13T06:51:55.611Z,2.00
2023-04-13T06:54:24.600Z,1.00
2023-04-13T06:57:02.117Z,1.75
2023-04-13T06:59:32.499Z,1.30
2023-04-13T07:02:01.083Z,1.20
2023-04-13T07:04:33.207Z,1.70
2023-04-13T07:07:02.982Z,1.42
2023-04-13T07:09:31.863Z,1.25
2023-04-13T07:12:04.365Z,1.30
2023-04-13T07:14:36.416Z,1.80
2023-04-13T07:17:05.971Z,1.80
2023-04-13T07:19:35.858Z,1.45
2023-04-13T07:22:04.797Z,1.65
2023-04-13T07:24:36.174Z,1.30
2023-04-13T07:27:09.017Z,1.20
2023-04-13T07:29:39.256Z,1.30
2023-04-13T07:32:11.715Z,1.30
2023-04-13T07:34:40.480Z,1.13
2023-04-13T07:37:10.173Z,1.00
2023-04-13T07:39:38.504Z,1.05
2023-04-13T07:42:06.951Z,0.73
2023-04-13T07:44:48.084Z,0.63
2023-04-13T07:47:16.854Z,0.60
2023-04-13T07:49:47.039Z,0.65
2023-04-13T07:52:20.855Z,0.70
2023-04-13T07:54:49.884Z,1.00
2023-04-13T07:57:21.457Z,0.65
2023-04-13T07:59:57.241Z,0.65
2023-04-13T08:02:25.992Z,0.80
2023-04-13T08:04:56.754Z,0.88
2023-04-13T08:07:30.576Z,0.70
2023-04-13T08:09:58.825Z,0.70
2023-04-13T08:12:29.168Z,0.60
2023-04-13T08:14:59.021Z,0.90
2023-04-13T08:17:27.499Z,0.70
2023-04-13T08:19:55.920Z,1.08
2023-04-13T08:22:24.799Z,0.95
2023-04-13T08:24:53.300Z,0.70
2023-04-13T08:27:21.567Z,1.23
2023-04-13T08:29:55.997Z,0.90
2023-04-13T08:32:26.672Z,0.63
2023-04-13T08:34:55.781Z,0.60
2023-04-13T08:37:24.674Z,0.73
2023-04-13T08:39:56.661Z,0.80
2023-04-13T08:42:27.045Z,0.57
2023-04-13T08:45:00.519Z,0.90
2023-04-13T08:47:31.105Z,0.63
2023-04-13T08:50:00.783Z,0.60
2023-04-13T08:52:40.553Z,1.15
2023-04-13T08:55:10.143Z,0.90
2023-04-13T08:57:40.375Z,0.50
2023-04-13T09:00:13.308Z,0.75
2023-04-13T09:03:00.548Z,0.55
2023-04-13T09:05:34.757Z,0.60
2023-04-13T09:08:08.120Z,0.80
2023-04-13T09:10:40.726Z,0.80
2023-04-13T09:13:09.577Z,0.60
2023-04-13T09:15:39.189Z,0.85
2023-04-13T09:18:22.251Z,0.50
2023-04-13T09:20:58.189Z,0.70
2023-04-13T09:23:28.127Z,0.90
2023-04-13T09:26:10.205Z,0.90
2023-04-13T09:28:47.849Z,0.90
2023-04-13T09:31:16.730Z,0.55
2023-04-13T09:33:47.521Z,0.55
2023-04-13T09:36:18.001Z,0.80
2023-04-13T09:38:47.041Z,1.10
2023-04-13T09:41:15.227Z,1.45
2023-04-13T09:43:43.522Z,0.80
2023-04-13T09:46:15.277Z,0.88
2023-04-13T09:48:43.917Z,0.98
2023-04-13T09:51:13.698Z,0.65
2023-04-13T09:53:43.774Z,0.57
2023-04-13T09:56:12.031Z,0.90
2023-04-13T09:58:45.021Z,0.90
2023-04-13T10:01:15.497Z,0.70
2023-04-13T10:03:44.899Z,0.63
2023-04-13T10:06:14.645Z,1.15
2023-04-13T10:08:43.421Z,1.15
2023-04-13T10:11:14.718Z,0.90
2023-04-13T10:13:49.494Z,1.20
2023-04-13T10:16:33.173Z,0.90
2023-04-13T10:19:05.079Z,0.55
2023-04-13T10:21:39.652Z,0.80
2023-04-13T10:24:12.399Z,0.75
2023-04-13T10:26:42.410Z,0.45
2023-04-13T10:29:13.593Z,0.68
2023-04-13T10:31:43.642Z,0.85
2023-04-13T10:34:12.567Z,0.82
2023-04-13T10:36:47.762Z,0.70
2023-04-13T10:39:25.762Z,0.70
2023-04-13T10:42:01.349Z,1.13
2023-04-13T10:44:41.319Z,1.30
2023-04-13T10:47:11.299Z,0.80
2023-04-13T10:49:40.787Z,0.80
2023-04-13T10:52:11.549Z,0.70
2023-04-13T10:54:42.075Z,0.95
2023-04-13T10:57:12.214Z,0.70
2023-04-13T10:59:56.274Z,1.15
2023-04-13T11:02:32.807Z,1.23
2023-04-13T11:05:02.819Z,0.80
2023-04-13T11:07:33.761Z,0.90
2023-04-13T11:10:03.748Z,1.05
2023-04-13T11:12:32.305Z,0.88
2023-04-13T11:15:00.946Z,1.08
2023-04-13T11:17:30.312Z,0.82
2023-04-13T11:19:59.773Z,0.82
2023-04-13T11:22:29.537Z,0.98
2023-04-13T11:25:10.017Z,0.60
2023-04-13T11:27:39.250Z,0.80
2023-04-13T11:30:11.430Z,1.00
2023-04-13T11:32:43.120Z,1.02
2023-04-13T11:35:14.393Z,1.48
2023-04-13T11:37:44.461Z,1.95
2023-04-13T11:40:17.234Z,1.70
2023-04-13T11:42:47.370Z,1.50
2023-04-13T11:45:19.064Z,1.50
2023-04-13T11:47:50.876Z,1.60
2023-04-13T11:50:20.179Z,1.40
2023-04-13T11:52:50.724Z,1.42
2023-04-13T11:55:23.623Z,1.85
2023-04-13T11:57:53.701Z,1.25
2023-04-13T12:00:26.811Z,2.25
2023-04-13T12:05:30.350Z,1.20
2023-04-13T12:07:59.569Z,1.38
2023-04-13T12:10:40.600Z,1.13
2023-04-13T12:16:05.000Z,1.20
2023-04-13T12:18:57.378Z,1.20
2023-04-13T12:21:26.727Z,1.20
2023-04-13T12:23:56.055Z,1.15
2023-04-13T12:27:16.265Z,1.38
2023-04-13T12:29:23.896Z,1.40
2023-04-13T12:31:52.750Z,1.40
2023-04-13T12:34:23.324Z,0.93
2023-04-13T12:36:52.011Z,0.90
2023-04-13T12:39:20.579Z,0.85
2023-04-13T12:41:51.346Z,0.80
2023-04-13T12:44:19.755Z,1.10
2023-04-13T12:46:47.969Z,1.20
2023-04-13T12:49:16.073Z,1.30
2023-04-13T12:51:44.383Z,1.17
2023-04-13T12:54:14.691Z,1.10
2023-04-13T12:56:42.821Z,1.27
2023-04-13T12:59:12.562Z,1.52
2023-04-13T13:01:40.848Z,1.10
2023-04-13T13:04:09.168Z,1.25
2023-04-13T13:06:38.189Z,1.08
2023-04-13T13:09:07.639Z,1.50
2023-04-13T13:11:35.981Z,1.52
2023-04-13T13:14:04.323Z,1.73
2023-04-13T13:16:34.292Z,1.30
2023-04-13T13:19:03.071Z,1.70
2023-04-13T13:21:31.657Z,1.17
2023-04-13T13:24:00.185Z,1.40
2023-04-13T13:26:36.711Z,1.20
2023-04-13T13:29:14.317Z,1.45
2023-04-13T13:31:44.071Z,1.35
2023-04-13T13:34:12.444Z,1.50
2023-04-13T13:36:40.992Z,1.50
2023-04-13T13:39:09.601Z,1.85
2023-04-13T13:41:38.246Z,1.10
2023-04-13T13:44:07.223Z,1.15
2023-04-13T13:46:36.924Z,1.73
2023-04-13T13:49:08.471Z,1.35
2023-04-13T13:51:52.820Z,1.52
2023-04-13T13:54:24.456Z,2.17
2023-04-13T13:56:53.120Z,1.60
2023-04-13T13:59:21.403Z,1.90
2023-04-13T14:01:49.762Z,1.38
2023-04-13T14:04:19.919Z,2.15
2023-04-13T14:06:49.708Z,1.52
2023-04-13T14:09:18.958Z,1.50
2023-04-13T14:11:47.074Z,1.60
2023-04-13T14:14:21.725Z,1.88
2023-04-13T14:16:50.928Z,1.65
2023-04-13T14:19:22.215Z,1.80
2023-04-13T14:21:50.535Z,1.80
2023-04-13T14:24:18.869Z,2.63
2023-04-13T14:26:47.326Z,1.75
2023-04-13T14:29:15.917Z,1.27
2023-04-13T14:31:44.730Z,1.98
2023-04-13T14:34:12.845Z,1.40
2023-04-13T14:36:42.603Z,1.40
2023-04-13T14:39:10.851Z,1.73
2023-04-13T14:41:39.245Z,1.45
2023-04-13T14:44:07.828Z,2.00
2023-04-13T14:46:37.815Z,1.58
2023-04-13T14:49:06.733Z,1.45
2023-04-13T14:51:35.307Z,1.25
2023-04-13T14:54:05.543Z,1.55
2023-04-13T14:56:33.683Z,2.50
2023-04-13T14:59:02.897Z,1.30
2023-04-13T15:01:31.863Z,1.80
2023-04-13T15:04:00.395Z,2.00
2023-04-13T15:06:29.362Z,1.15
2023-04-13T15:08:57.550Z,1.58
2023-04-13T15:11:27.316Z,2.45
2023-04-13T15:13:55.843Z,1.40
2023-04-13T15:16:24.434Z,1.00
2023-04-13T15:18:52.821Z,1.60
2023-04-13T15:21:21.472Z,2.00
2023-04-13T15:23:50.103Z,1.30
2023-04-13T15:26:19.108Z,2.67
2023-04-13T15:28:48.716Z,1.75
2023-04-13T15:31:17.102Z,1.15
2023-04-13T15:33:45.241Z,1.38
2023-04-13T15:36:17.312Z,1.38
2023-04-13T15:38:45.519Z,2.85
2023-04-13T15:41:14.541Z,5.82
2023-04-13T15:43:44.296Z,4.18
2023-04-13T15:46:14.098Z,2.42
2023-04-13T15:48:42.829Z,3.30
2023-04-13T15:51:12.416Z,3.58
2023-04-13T15:53:41.083Z,2.33
2023-04-13T15:56:10.362Z,2.22
2023-04-13T15:58:39.211Z,2.25
2023-04-13T16:01:10.779Z,2.60
2023-04-13T16:03:41.761Z,1.90
2023-04-13T16:06:10.799Z,2.33
2023-04-13T16:08:39.304Z,2.67
2023-04-13T16:11:07.871Z,1.80
2023-04-13T16:13:47.951Z,2.70
2023-04-13T16:16:18.553Z,2.63
2023-04-13T16:18:49.247Z,1.75
2023-04-13T16:21:19.589Z,1.85
2023-04-13T16:23:47.682Z,3.22
2023-04-13T16:26:16.072Z,3.45
2023-04-13T16:28:44.989Z,2.20
2023-04-13T16:31:13.248Z,3.35
2023-04-13T16:33:41.857Z,2.67
2023-04-13T16:36:11.792Z,1.40
2023-04-13T16:38:42.075Z,1.45
2023-04-13T16:41:11.448Z,3.00
2023-04-13T16:43:40.139Z,1.77
2023-04-13T16:46:08.454Z,2.40
2023-04-13T16:48:36.784Z,2.67
2023-04-13T16:51:06.335Z,2.55
2023-04-13T16:53:36.065Z,1.60
2023-04-13T16:56:04.553Z,1.52
2023-04-13T16:58:32.974Z,1.60
2023-04-13T17:01:01.321Z,1.88
2023-04-13T17:03:30.057Z,1.60
2023-04-13T17:05:59.004Z,1.65
2023-04-13T17:08:27.635Z,2.20
2023-04-13T17:10:57.463Z,2.60
2023-04-13T17:13:26.232Z,3.00
2023-04-13T17:15:55.435Z,2.88
2023-04-13T17:18:24.174Z,1.58
2023-04-13T17:20:57.886Z,2.17
2023-04-13T17:27:00.204Z,2.83
2023-04-13T17:29:29.242Z,2.80
2023-04-13T17:31:57.996Z,2.45
2023-04-13T17:34:26.115Z,1.80
2023-04-13T17:36:54.479Z,3.10
2023-04-13T17:39:23.101Z,3.80
2023-04-13T17:41:51.440Z,2.95
2023-04-13T17:44:21.236Z,1.92
2023-04-13T17:46:51.957Z,3.53
2023-04-13T17:49:20.879Z,1.92
2023-04-13T17:51:49.311Z,2.05
2023-04-13T17:54:18.290Z,2.05
2023-04-13T17:56:47.222Z,2.30
2023-04-13T17:59:16.340Z,2.33
2023-04-13T18:01:46.486Z,4.75
2023-04-13T18:04:16.045Z,2.60
2023-04-13T18:06:44.773Z,4.00
2023-04-13T18:09:14.367Z,2.25
2023-04-13T18:11:42.910Z,2.70
2023-04-13T18:14:15.296Z,2.70
2023-04-13T18:16:44.273Z,2.20
2023-04-13T18:19:14.209Z,3.95
2023-04-13T18:21:42.639Z,3.75
2023-04-13T18:24:10.958Z,3.70
2023-04-13T18:26:40.583Z,3.50
2023-04-13T18:29:09.051Z,4.75
2023-04-13T18:31:37.801Z,5.60
2023-04-13T18:34:07.306Z,5.30
2023-04-13T18:36:37.147Z,6.03
2023-04-13T18:39:06.734Z,7.85
2023-04-13T18:41:34.945Z,4.05
2023-04-13T18:44:03.626Z,4.13
2023-04-13T18:46:31.922Z,3.80
2023-04-13T18:48:59.924Z,4.47
2023-04-13T18:51:30.851Z,4.30
2023-04-13T18:54:00.738Z,3.42
2023-04-13T18:56:29.442Z,4.05
2023-04-13T18:58:57.960Z,4.45
2023-04-13T19:01:26.117Z,6.75
2023-04-13T19:03:54.795Z,51.95
2023-04-13T19:06:23.841Z,42.90
2023-04-13T19:08:52.528Z,31.08
2023-04-13T19:11:27.578Z,15.05
2023-04-13T19:13:57.149Z,6.30
2023-04-13T19:16:26.284Z,21.58
2023-04-13T19:18:55.045Z,17.65
2023-04-13T19:21:24.438Z,21.90
2023-04-13T19:23:52.993Z,22.10
2023-04-13T19:26:22.730Z,17.67
2023-04-13T19:28:51.056Z,14.27
2023-04-13T19:31:19.372Z,12.55
2023-04-13T19:33:48.927Z,9.05
2023-04-13T19:36:17.305Z,5.60
2023-04-13T19:38:45.596Z,5.47
2023-04-13T19:41:13.841Z,11.20
2023-04-13T19:43:43.404Z,13.43
2023-04-13T19:46:11.777Z,13.63
2023-04-13T19:48:41.682Z,12.75
2023-04-13T19:51:10.102Z,8.50
2023-04-13T19:53:38.542Z,4.97
2023-04-13T19:56:07.265Z,3.70
2023-04-13T19:58:35.550Z,3.95
2023-04-13T20:01:07.802Z,4.38
2023-04-13T20:03:36.668Z,7.82
2023-04-13T20:06:05.349Z,5.90
2023-04-13T20:08:33.835Z,4.40
2023-04-13T20:11:01.913Z,3.67
2023-04-13T20:13:30.362Z,4.05
2023-04-13T20:15:58.829Z,4.00
2023-04-13T20:18:28.420Z,3.20
2023-04-13T20:20:57.021Z,3.85
2023-04-13T20:23:25.172Z,3.40
2023-04-13T20:25:53.760Z,3.60
2023-04-13T20:28:21.930Z,4.60
2023-04-13T20:30:50.414Z,3.75
2023-04-13T20:33:18.688Z,4.03
2023-04-13T20:35:48.201Z,4.15
2023-04-13T20:38:16.219Z,3.28
2023-04-13T20:40:45.845Z,3.28
2023-04-13T20:43:15.892Z,3.85
2023-04-13T20:45:45.448Z,4.30
2023-04-13T20:50:48.915Z,5.10
2023-04-13T20:53:17.838Z,4.65
2023-04-13T20:55:46.217Z,4.32
2023-04-13T20:58:15.884Z,3.00
2023-04-13T21:00:45.301Z,3.13
2023-04-13T21:03:13.808Z,2.75
2023-04-13T21:05:42.084Z,4.20
2023-04-13T21:08:12.069Z,4.68
2023-04-13T21:10:40.433Z,4.28
2023-04-13T21:13:10.618Z,2.88
2023-04-13T21:15:38.891Z,3.47
2023-04-13T21:18:07.351Z,3.10
2023-04-13T21:20:35.847Z,3.50
2023-04-13T21:23:04.066Z,3.42
2023-04-13T21:25:33.803Z,1.90
2023-04-13T21:28:03.038Z,3.13
2023-04-13T21:30:31.312Z,2.75
2023-04-13T21:32:59.761Z,3.50
2023-04-13T21:35:29.393Z,2.72
2023-04-13T21:37:57.479Z,3.60
2023-04-13T21:40:25.531Z,3.00
2023-04-13T21:42:55.186Z,2.70
2023-04-13T21:45:23.564Z,4.10
2023-04-13T21:47:53.902Z,3.13
2023-04-13T21:50:22.575Z,4.93
2023-04-13T21:52:50.905Z,4.65
2023-04-13T21:55:19.218Z,3.63
2023-04-13T21:57:48.918Z,4.35
2023-04-13T22:00:19.697Z,2.72
2023-04-13T22:02:49.666Z,2.45
2023-04-13T22:05:18.010Z,2.92
2023-04-13T22:07:46.181Z,3.65
2023-04-13T22:10:14.723Z,4.22
2023-04-13T22:12:42.941Z,3.78
2023-04-13T22:15:12.203Z,4.07
2023-04-13T22:17:41.779Z,4.15
2023-04-13T22:20:10.901Z,5.10
2023-04-13T22:22:39.176Z,5.05
2023-04-13T22:25:07.830Z,5.75
2023-04-13T22:27:37.437Z,4.63
2023-04-13T22:30:07.443Z,5.80
2023-04-13T22:32:35.645Z,5.65
2023-04-13T22:35:06.770Z,5.55
2023-04-13T22:37:35.656Z,5.57
2023-04-13T22:40:04.642Z,5.80
2023-04-13T22:42:32.813Z,6.57
2023-04-13T22:45:01.035Z,6.32
2023-04-13T22:47:29.463Z,6.30
2023-04-13T22:49:59.918Z,6.00
2023-04-13T22:52:29.874Z,6.13
2023-04-13T22:54:58.184Z,5.07
2023-04-13T22:57:26.360Z,5.75
2023-04-13T22:59:54.729Z,5.80
2023-04-13T23:02:23.045Z,5.65
2023-04-13T23:04:51.441Z,5.82
2023-04-13T23:07:19.632Z,6.70
2023-04-13T23:09:52.395Z,5.60
2023-04-13T23:12:20.606Z,5.18
2023-04-13T23:14:48.772Z,7.82
2023-04-13T23:17:16.889Z,7.20
2023-04-13T23:19:45.392Z,7.60
2023-04-13T23:22:13.874Z,6.90
2023-04-13T23:24:42.045Z,6.47
2023-04-13T23:27:11.707Z,6.10
2023-04-13T23:29:45.560Z,5.05
2023-04-13T23:32:13.937Z,6.20
2023-04-13T23:34:41.963Z,5.35
2023-04-13T23:37:10.655Z,5.60
2023-04-13T23:39:38.826Z,5.30
2023-04-13T23:42:07.032Z,5.18
2023-04-13T23:44:36.450Z,4.65
2023-04-13T23:47:04.954Z,4.05
2023-04-13T23:49:33.162Z,4.90
2023-04-13T23:52:01.671Z,4.55
2023-04-13T23:54:30.172Z,4.93
2023-04-13T23:56:58.528Z,5.20
2023-04-13T23:59:26.637Z,5.18
